Time;durP1;ratioP1;P1;durP2;ratioP2;P2;SDS_P1;SDS_P2;PMS_P1;PMS_P2;Temp;Humidity;BMP_temperature;BMP_pressure;BME280_temperature;BME280_humidity;BME280_pressure;Samples;Min_cycle;Max_cycle;Signal;HPM_P1;HPM_P2
2023/01/21 00:00:38;;;;;;;14.60;13.20;;;;;;;4.97;65.18;94335.06;4969687;28;20239;-64
2023/01/21 00:03:03;;;;;;;15.67;14.07;;;;;;;5.23;64.43;94324.94;5004509;28;20206;-64
2023/01/21 00:05:29;;;;;;;14.73;13.37;;;;;;;5.22;64.54;94336.34;4966446;28;20401;-64
2023/01/21 00:07:54;;;;;;;14.83;13.53;;;;;;;5.23;64.01;94328.38;4985402;28;20220;-64
2023/01/21 00:10:20;;;;;;;13.73;12.43;;;;;;;5.29;63.34;94333.06;4989536;28;20231;-64
2023/01/21 00:12:45;;;;;;;13.87;12.57;;;;;;;5.38;63.26;94336.63;5005789;28;20227;-63
2023/01/21 00:15:10;;;;;;;13.30;12.10;;;;;;;5.45;62.73;94339.50;5022474;28;20254;-64
2023/01/21 00:17:36;;;;;;;12.60;11.43;;;;;;;5.37;62.65;94336.75;4988615;28;20230;-64
2023/01/21 00:20:03;;;;;;;14.13;12.73;;;;;;;5.26;63.09;94343.72;4991278;28;20250;-64
2023/01/21 00:22:29;;;;;;;13.07;11.87;;;;;;;5.27;63.24;94337.56;4995777;28;20227;-65
2023/01/21 00:24:54;;;;;;;13.07;11.90;;;;;;;5.25;63.58;94344.69;5002066;28;20319;-64
2023/01/21 00:27:19;;;;;;;13.33;12.00;;;;;;;5.34;63.01;94318.78;4971372;28;20208;-64
2023/01/21 00:29:45;;;;;;;13.20;12.00;;;;;;;5.34;62.80;94321.38;5023197;28;20274;-65
2023/01/21 00:32:10;;;;;;;12.17;11.07;;;;;;;5.13;63.08;94327.53;5004258;28;20220;-64
2023/01/21 00:34:35;;;;;;;13.30;11.90;;;;;;;5.33;62.77;94338.81;4968762;28;20238;-66
2023/01/21 00:37:01;;;;;;;13.80;12.50;;;;;;;5.36;62.63;94348.97;5006108;28;20228;-65
2023/01/21 00:39:26;;;;;;;13.93;12.73;;;;;;;5.25;62.80;94346.50;4981258;28;20222;-65
2023/01/21 00:41:52;;;;;;;13.97;12.73;;;;;;;5.21;63.37;94338.13;5003423;28;20188;-65
2023/01/21 00:44:18;;;;;;;14.17;12.77;;;;;;;5.40;63.35;94323.44;5005771;28;20298;-65
2023/01/21 00:46:43;;;;;;;14.83;13.53;;;;;;;5.01;64.06;94315.59;5007929;28;20291;-65
2023/01/21 00:49:09;;;;;;;15.07;13.47;;;;;;;5.16;63.76;94319.47;4968865;28;20339;-66
2023/01/21 00:51:34;;;;;;;14.70;13.27;;;;;;;5.05;64.38;94320.41;5006203;28;20223;-65
2023/01/21 00:54:00;;;;;;;14.57;13.17;;;;;;;5.12;64.14;94318.06;4989551;28;20195;-65
2023/01/21 00:56:25;;;;;;;15.53;14.03;;;;;;;4.98;64.73;94308.06;5005814;28;20232;-66
2023/01/21 00:58:51;;;;;;;15.67;14.17;;;;;;;4.82;65.28;94304.19;5020916;28;20239;-65
2023/01/21 01:01:18;;;;;;;14.80;13.40;;;;;;;4.89;65.44;94320.09;4997658;28;20686;-66
2023/01/21 01:03:45;;;;;;;14.60;13.20;;;;;;;5.07;64.97;94328.91;4988457;28;20227;-66
2023/01/21 01:06:16;;;;;;;15.67;14.00;;;;;;;4.98;64.93;94328.91;4985259;28;20230;-66
2023/01/21 01:08:43;;;;;;;14.90;13.40;;;;;;;4.90;64.73;94321.75;5002718;28;20282;-66
2023/01/21 01:11:10;;;;;;;14.77;13.37;;;;;;;4.96;65.06;94323.00;4988540;28;20223;-66
2023/01/21 01:13:36;;;;;;;14.63;13.23;;;;;;;4.98;64.81;94316.69;4987952;28;20231;-66
2023/01/21 01:16:02;;;;;;;14.97;13.43;;;;;;;5.04;64.65;94318.75;4985696;28;20496;-66
2023/01/21 01:18:31;;;;;;;14.27;12.97;;;;;;;5.12;64.20;94309.44;4985719;28;20235;-65
2023/01/21 01:20:57;;;;;;;14.97;13.57;;;;;;;5.08;65.14;94329.75;5000302;28;20203;-66
2023/01/21 01:23:22;;;;;;;14.37;13.07;;;;;;;5.08;64.81;94321.94;4967195;28;20229;-66
2023/01/21 01:25:59;;;;;;;14.60;13.20;;;;;;;5.04;64.92;94317.94;4967986;28;20231;-66
2023/01/21 01:28:25;;;;;;;14.60;13.20;;;;;;;5.06;64.30;94311.63;4985037;28;20228;-66
2023/01/21 01:30:51;;;;;;;14.60;13.20;;;;;;;5.09;64.94;94306.13;4980763;28;20234;-64
2023/01/21 01:33:18;;;;;;;14.60;13.30;;;;;;;5.20;64.38;94314.78;4961823;28;20200;-66
2023/01/21 01:35:46;;;;;;;15.27;13.77;;;;;;;5.00;64.66;94306.97;4969774;28;20274;-66
2023/01/21 01:38:16;;;;;;;13.13;11.93;;;;;;;5.17;64.33;94297.63;4985017;28;20236;-66
2023/01/21 01:40:42;;;;;;;13.47;12.20;;;;;;;5.21;64.09;94309.47;4968957;28;20235;-65
2023/01/21 01:43:20;;;;;;;13.63;12.33;;;;;;;5.25;63.58;94289.97;4977980;28;20273;-65
2023/01/21 01:45:47;;;;;;;13.27;12.07;;;;;;;5.27;63.75;94297.66;5020788;28;20221;-65
2023/01/21 01:48:21;;;;;;;13.50;12.30;;;;;;;5.16;64.20;94298.63;5019414;28;20196;-64
2023/01/21 01:50:47;;;;;;;13.43;12.00;;;;;;;4.93;64.67;94292.00;4987705;28;20203;-64
2023/01/21 01:53:15;;;;;;;13.80;12.43;;;;;;;5.15;64.08;94270.06;4990323;28;20237;-65
2023/01/21 01:55:41;;;;;;;12.70;11.60;;;;;;;5.16;64.78;94274.31;4989289;28;20227;-64
2023/01/21 01:58:11;;;;;;;13.13;11.87;;;;;;;5.21;64.39;94275.56;5000621;28;20238;-64
2023/01/21 02:00:37;;;;;;;12.63;11.43;;;;;;;5.08;64.58;94270.63;4987170;28;20227;-65
2023/01/21 02:05:47;;;;;;;10.23;9.23;;;;;;;4.98;64.78;94261.16;4968572;28;20270;-64
2023/01/21 02:08:13;;;;;;;10.23;9.17;;;;;;;5.10;64.14;94265.25;4968424;28;20327;-64
2023/01/21 02:10:38;;;;;;;9.53;8.73;;;;;;;5.02;64.29;94267.72;4965143;28;20734;-65
2023/01/21 02:13:04;;;;;;;10.37;9.47;;;;;;;5.04;64.46;94281.44;5001888;28;20220;-65
2023/01/21 02:16:11;;;;;;;11.20;10.20;;;;;;;4.95;64.58;94240.59;5001325;28;20228;-63
2023/01/21 02:18:54;;;;;;;10.63;9.63;;;;;;;4.93;65.12;94250.31;4967866;28;20295;-64
2023/01/21 02:21:33;;;;;;;12.83;11.53;;;;;;;4.92;65.52;94233.03;4997535;28;20192;-63
2023/01/21 02:24:37;;;;;;;11.97;10.97;;;;;;;4.81;65.21;94241.78;4966856;28;20975;-65
2023/01/21 02:27:21;;;;;;;12.33;11.13;;;;;;;4.96;65.20;94222.19;4965613;28;20232;-64
2023/01/21 02:30:14;;;;;;;12.37;11.03;;;;;;;4.98;65.22;94216.88;4983805;28;20204;-66
2023/01/21 02:33:13;;;;;;;12.27;11.20;;;;;;;5.04;64.91;94224.94;5001683;28;20219;-65
2023/01/21 02:35:50;;;;;;;12.90;11.70;;;;;;;4.81;66.00;94223.56;5016946;28;20227;-65
2023/01/21 02:39:02;;;;;;;13.03;11.83;;;;;;;4.89;65.41;94225.50;5001019;28;20232;-65
2023/01/21 02:41:49;;;;;;;12.63;11.20;;;;;;;4.91;65.36;94210.56;4912592;29;20237;-65
2023/01/21 02:44:42;;;;;;;11.30;10.20;;;;;;;4.80;65.86;94211.50;4911925;29;20244;-65
2023/01/21 02:47:32;;;;;;;11.50;10.30;;;;;;;4.79;65.70;94231.53;4907311;29;20226;-65
2023/01/21 02:50:05;;;;;;;10.13;9.23;;;;;;;4.88;65.15;94218.66;4908506;29;20222;-65
2023/01/21 02:52:31;;;;;;;10.70;9.60;;;;;;;4.88;65.36;94218.66;4888736;29;20229;-65
2023/01/21 02:54:58;;;;;;;10.60;9.60;;;;;;;4.86;65.14;94222.22;4896143;29;20222;-65
2023/01/21 02:57:36;;;;;;;10.43;9.43;;;;;;;4.75;65.25;94230.16;4910503;29;20317;-65
2023/01/21 03:00:40;;;;;;;11.20;10.20;;;;;;;4.85;65.21;94204.94;4899827;29;20189;-66
2023/01/21 03:03:30;;;;;;;11.50;10.40;;;;;;;4.79;65.24;94202.88;4858304;29;20235;-65
2023/01/21 03:06:02;;;;;;;10.93;9.87;;;;;;;4.60;65.73;94200.28;4875515;29;20226;-66
2023/01/21 03:08:42;;;;;;;10.70;9.70;;;;;;;4.60;66.01;94195.88;4875280;29;20294;-65
2023/01/21 03:11:17;;;;;;;10.07;9.13;;;;;;;4.62;65.54;94187.91;4874832;29;20235;-64
2023/01/21 03:16:59;;;;;;;9.90;9.00;;;;;;;4.61;65.52;94181.06;4875165;29;20258;-66
2023/01/21 03:20:03;;;;;;;9.20;8.40;;;;;;;4.64;65.30;94175.59;4859526;29;20277;-65
2023/01/21 03:22:34;;;;;;;8.40;7.60;;;;;;;4.59;65.25;94182.97;4874166;29;20222;-66
2023/01/21 03:25:01;;;;;;;8.70;7.90;;;;;;;4.58;64.97;94182.16;4905909;29;20320;-64
2023/01/21 03:27:29;;;;;;;8.67;7.83;;;;;;;4.49;65.19;94166.53;4911396;29;20225;-64
2023/01/21 03:29:59;;;;;;;8.13;7.37;;;;;;;4.46;65.20;94169.41;4897480;29;20212;-65
2023/01/21 03:32:27;;;;;;;8.93;8.13;;;;;;;4.39;65.50;94158.72;4896738;29;20234;-65
2023/01/21 03:34:55;;;;;;;9.30;8.50;;;;;;;4.26;66.31;94164.19;4912544;29;20233;-65
2023/01/21 03:37:45;;;;;;;9.97;9.00;;;;;;;4.37;65.91;94152.81;4939971;28;20233;-65
2023/01/21 03:40:13;;;;;;;9.83;8.97;;;;;;;4.48;65.59;94151.88;4968370;28;20302;-65
2023/01/21 03:42:43;;;;;;;11.07;9.97;;;;;;;4.41;66.10;94155.03;4970344;28;20288;-65
2023/01/21 03:45:10;;;;;;;9.83;8.93;;;;;;;4.09;66.70;94157.00;4970640;28;20192;-64
2023/01/21 03:47:37;;;;;;;9.93;9.00;;;;;;;4.29;66.06;94153.50;4974676;28;20219;-65
2023/01/21 03:50:12;;;;;;;9.37;8.47;;;;;;;4.24;65.84;94150.47;5003991;28;20259;-64
2023/01/21 03:52:43;;;;;;;11.13;10.03;;;;;;;4.09;67.02;94144.00;4970679;28;20237;-65
2023/01/21 03:55:10;;;;;;;9.83;8.83;;;;;;;4.13;66.80;94146.22;5010110;28;20231;-66
2023/01/21 03:57:36;;;;;;;10.10;9.10;;;;;;;4.21;66.48;94145.53;5023577;28;20286;-65
2023/01/21 04:00:03;;;;;;;9.87;8.87;;;;;;;4.12;66.50;94128.16;5006600;28;20242;-66
2023/01/21 04:02:29;;;;;;;10.17;9.00;;;;;;;4.09;66.78;94136.19;4990909;28;20231;-66
2023/01/21 04:04:54;;;;;;;11.03;9.93;;;;;;;4.17;67.16;94152.81;5005810;28;20248;-65
2023/01/21 04:07:20;;;;;;;9.27;8.47;;;;;;;4.38;66.34;94142.28;5022550;28;20223;-66
2023/01/21 04:09:45;;;;;;;9.57;8.60;;;;;;;4.33;65.97;94149.69;4990674;28;20329;-65
2023/01/21 04:12:10;;;;;;;9.80;8.90;;;;;;;4.42;66.16;94145.44;5023575;28;20274;-65
2023/01/21 04:14:36;;;;;;;9.87;9.07;;;;;;;4.50;66.08;94142.16;4995821;28;20254;-66
2023/01/21 04:17:02;;;;;;;9.13;8.33;;;;;;;4.48;65.77;94133.66;4988390;28;20310;-65
2023/01/21 04:19:27;;;;;;;9.97;8.93;;;;;;;4.27;66.43;94128.56;4988529;28;20255;-65
2023/01/21 04:21:53;;;;;;;9.47;8.57;;;;;;;4.28;66.47;94118.03;5023240;28;20226;-65
2023/01/21 04:24:18;;;;;;;9.53;8.70;;;;;;;3.85;67.90;94119.19;5022833;28;20187;-65
2023/01/21 04:26:43;;;;;;;8.90;8.07;;;;;;;4.00;67.99;94113.59;4989559;28;20196;-64
2023/01/21 04:29:09;;;;;;;9.13;8.33;;;;;;;3.95;67.73;94120.00;4970994;28;20217;-65
2023/01/21 04:31:34;;;;;;;10.67;9.67;;;;;;;4.13;67.03;94135.00;4987887;28;20251;-65
2023/01/21 04:34:00;;;;;;;11.50;10.30;;;;;;;4.02;66.97;94138.53;4976685;28;20219;-65
2023/01/21 04:36:25;;;;;;;9.97;9.07;;;;;;;3.93;67.34;94153.16;4991461;28;20263;-64
2023/01/21 04:38:51;;;;;;;10.93;9.70;;;;;;;3.87;67.81;94148.47;4992574;28;20220;-64
2023/01/21 04:41:16;;;;;;;9.87;8.87;;;;;;;4.10;67.24;94148.28;4990172;28;20227;-64
2023/01/21 04:43:42;;;;;;;9.97;9.07;;;;;;;4.08;66.87;94152.78;4991212;28;20301;-64
2023/01/21 04:46:07;;;;;;;9.70;8.70;;;;;;;4.26;66.54;94158.97;4992559;28;20254;-64
2023/01/21 04:48:32;;;;;;;10.07;8.53;;;;;;;4.31;66.49;94149.00;5007077;28;20298;-64
2023/01/21 04:50:58;;;;;;;8.77;7.97;;;;;;;4.37;66.29;94168.44;4989691;28;20291;-63
2023/01/21 04:53:23;;;;;;;9.13;8.20;;;;;;;4.39;66.34;94175.16;4986130;28;20234;-65
2023/01/21 04:55:52;;;;;;;9.10;8.30;;;;;;;4.39;66.04;94162.16;4993392;28;20223;-65
2023/01/21 04:58:19;;;;;;;8.03;6.90;;;;;;;4.42;65.71;94166.25;4989431;28;20228;-67
2023/01/21 05:00:45;;;;;;;6.23;5.67;;;;;;;4.53;65.48;94162.72;4990277;28;20227;-66
2023/01/21 05:03:10;;;;;;;6.67;5.77;;;;;;;4.54;65.70;94165.16;4991963;28;20201;-66
2023/01/21 05:05:35;;;;;;;5.03;4.53;;;;;;;4.53;65.78;94167.91;4992331;28;20187;-65
2023/01/21 05:08:01;;;;;;;6.20;5.40;;;;;;;4.70;65.36;94163.81;4988849;28;20224;-65
2023/01/21 05:10:26;;;;;;;5.73;5.23;;;;;;;4.76;64.87;94153.66;4989351;28;20295;-65
2023/01/21 05:12:52;;;;;;;6.03;5.53;;;;;;;4.83;64.56;94172.97;4980261;28;20267;-65
2023/01/21 05:15:17;;;;;;;7.10;6.40;;;;;;;4.86;64.44;94185.75;5001992;28;20210;-65
2023/01/21 05:17:43;;;;;;;7.40;6.80;;;;;;;4.84;64.33;94194.66;4970967;28;20204;-65
2023/01/21 05:20:09;;;;;;;6.93;6.20;;;;;;;4.98;64.41;94202.06;4981098;28;20240;-66
2023/01/21 05:22:35;;;;;;;7.33;6.63;;;;;;;4.93;64.20;94195.63;4989440;28;20231;-64
2023/01/21 05:25:00;;;;;;;7.40;6.57;;;;;;;4.94;64.34;94198.06;5010695;28;20291;-65
2023/01/21 05:27:26;;;;;;;7.37;6.77;;;;;;;4.95;64.12;94180.69;5001422;28;20239;-65
2023/01/21 05:29:51;;;;;;;7.20;6.50;;;;;;;4.92;64.64;94176.56;4981863;28;20196;-65
2023/01/21 05:32:17;;;;;;;10.50;9.40;;;;;;;4.78;64.42;94203.81;4976503;28;20322;-65
2023/01/21 05:34:43;;;;;;;13.03;11.63;;;;;;;4.31;66.23;94221.84;4971652;28;20255;-64
2023/01/21 05:37:09;;;;;;;13.57;11.90;;;;;;;4.34;66.45;94211.19;4970114;28;20231;-65
2023/01/21 05:39:34;;;;;;;12.53;11.23;;;;;;;4.52;65.71;94200.94;5001518;28;20227;-65
2023/01/21 05:42:00;;;;;;;13.00;11.33;;;;;;;4.51;65.58;94199.28;4970573;28;20192;-65
2023/01/21 05:44:25;;;;;;;13.37;12.07;;;;;;;4.58;65.63;94207.38;4970113;28;20223;-65
2023/01/21 05:46:51;;;;;;;14.67;13.17;;;;;;;4.53;65.84;94217.38;5000209;28;20513;-66
2023/01/21 05:49:16;;;;;;;13.30;11.93;;;;;;;4.20;67.25;94207.19;4999183;28;20288;-66
2023/01/21 05:51:42;;;;;;;15.40;13.20;;;;;;;3.91;67.95;94233.09;5007445;28;20220;-66
2023/01/21 05:54:07;;;;;;;15.93;14.10;;;;;;;3.47;69.64;94229.03;5005131;28;20334;-64
2023/01/21 05:56:33;;;;;;;16.27;14.67;;;;;;;3.52;69.34;94226.88;5020653;28;20283;-65
2023/01/21 05:58:58;;;;;;;14.83;13.30;;;;;;;3.78;68.81;94235.09;4987312;28;20243;-65
2023/01/21 06:01:24;;;;;;;15.60;14.00;;;;;;;4.02;67.95;94231.34;4970637;28;20232;-66
2023/01/21 06:03:49;;;;;;;15.50;13.77;;;;;;;3.93;68.07;94227.78;4985048;28;20224;-65
2023/01/21 06:06:14;;;;;;;15.30;13.80;;;;;;;4.02;67.73;94220.94;4970039;28;20207;-64
2023/01/21 06:08:40;;;;;;;15.97;14.27;;;;;;;4.10;67.44;94223.72;4987928;28;20203;-63
2023/01/21 06:11:05;;;;;;;16.00;13.87;;;;;;;4.02;67.80;94215.75;5019086;28;20629;-64
2023/01/21 06:13:31;;;;;;;16.73;15.10;;;;;;;4.12;67.22;94219.22;4987068;28;20231;-64
2023/01/21 06:15:56;;;;;;;17.30;15.60;;;;;;;4.22;67.45;94227.84;5017031;28;20233;-65
2023/01/21 06:18:23;;;;;;;18.73;15.37;;;;;;;4.26;67.10;94218.81;4987404;28;20349;-65
2023/01/21 06:20:48;;;;;;;17.77;15.97;;;;;;;4.06;67.61;94238.75;4986310;28;20330;-64
2023/01/21 06:23:14;;;;;;;18.80;16.90;;;;;;;4.16;67.18;94231.81;4988483;28;20366;-65
2023/01/21 06:25:39;;;;;;;18.40;16.50;;;;;;;4.23;67.33;94234.72;5020275;28;20327;-64
2023/01/21 06:28:06;;;;;;;18.00;16.10;;;;;;;4.14;67.16;94227.69;4988138;28;20242;-66
2023/01/21 06:30:31;;;;;;;18.80;16.90;;;;;;;4.26;67.09;94228.41;4992046;28;20227;-66
2023/01/21 06:32:57;;;;;;;18.93;17.03;;;;;;;4.31;66.77;94232.28;4993015;28;20217;-67
2023/01/21 06:35:23;;;;;;;17.60;15.73;;;;;;;4.34;67.06;94232.00;4986732;28;20223;-66
2023/01/21 06:37:48;;;;;;;16.80;15.20;;;;;;;4.37;66.61;94241.31;4981988;28;20262;-66
2023/01/21 06:40:14;;;;;;;19.10;15.73;;;;;;;4.38;66.92;94245.56;5019726;28;20219;-66
2023/01/21 06:42:39;;;;;;;18.00;16.10;;;;;;;4.27;67.19;94246.50;4999410;28;20228;-66
2023/01/21 06:45:05;;;;;;;18.07;16.27;;;;;;;4.29;66.76;94241.97;4968190;28;20192;-65
2023/01/21 06:47:31;;;;;;;18.03;16.13;;;;;;;3.73;69.11;94242.44;4968934;28;20212;-63
2023/01/21 06:49:56;;;;;;;17.03;15.20;;;;;;;3.52;70.30;94238.09;4967290;28;20228;-65
2023/01/21 06:52:22;;;;;;;15.43;13.93;;;;;;;3.88;68.90;94254.16;4966308;28;20394;-65
2023/01/21 06:54:48;;;;;;;15.73;14.23;;;;;;;4.04;68.73;94253.69;4976204;28;20691;-65
2023/01/21 06:57:13;;;;;;;14.40;12.83;;;;;;;4.24;68.12;94253.75;4981219;28;20617;-64
2023/01/21 06:59:39;;;;;;;12.50;11.30;;;;;;;4.42;67.43;94266.00;4987146;28;20199;-64
2023/01/21 07:02:05;;;;;;;13.33;11.37;;;;;;;4.54;67.08;94268.47;4980310;28;20235;-64
2023/01/21 07:04:31;;;;;;;10.77;9.67;;;;;;;4.49;67.25;94268.91;4985515;28;20242;-64
2023/01/21 07:06:56;;;;;;;7.67;6.87;;;;;;;4.65;66.45;94276.16;4985582;28;20231;-65
2023/01/21 07:09:22;;;;;;;8.50;7.70;;;;;;;4.78;65.92;94265.50;5003760;28;20204;-64
2023/01/21 07:11:47;;;;;;;9.17;8.33;;;;;;;4.93;65.40;94265.94;4988591;28;20211;-66
2023/01/21 07:14:13;;;;;;;10.00;8.93;;;;;;;4.94;65.70;94262.38;4987122;28;20266;-65
2023/01/21 07:16:38;;;;;;;8.00;7.30;;;;;;;5.11;64.77;94272.13;4995829;28;20289;-65
2023/01/21 07:19:04;;;;;;;7.30;6.60;;;;;;;5.12;64.51;94250.31;4985393;28;20273;-66
2023/01/21 07:21:29;;;;;;;8.60;6.73;;;;;;;5.23;64.57;94260.59;4986192;28;20252;-65
2023/01/21 07:23:55;;;;;;;7.63;6.93;;;;;;;5.27;64.45;94267.19;4988867;28;20196;-65
2023/01/21 07:26:21;;;;;;;6.73;6.00;;;;;;;5.34;64.04;94266.63;5000677;28;20271;-64
2023/01/21 07:28:46;;;;;;;7.23;6.53;;;;;;;5.37;64.06;94263.75;4967107;28;20306;-66
2023/01/21 07:31:12;;;;;;;7.73;7.03;;;;;;;5.43;63.83;94271.03;4979398;28;20236;-65
2023/01/21 07:33:38;;;;;;;5.73;4.93;;;;;;;5.47;63.83;94262.78;5000995;28;20255;-65
2023/01/21 07:36:05;;;;;;;6.13;5.63;;;;;;;5.57;63.47;94257.56;4968599;28;20212;-65
2023/01/21 07:38:30;;;;;;;6.50;5.80;;;;;;;5.55;63.34;94258.66;4987901;28;20230;-65
2023/01/21 07:40:56;;;;;;;6.03;5.43;;;;;;;5.65;63.14;94267.28;4986764;28;20239;-65
2023/01/21 07:43:21;;;;;;;5.83;5.17;;;;;;;5.64;62.87;94257.81;5005548;28;20235;-65
2023/01/21 07:45:47;;;;;;;6.70;5.10;;;;;;;5.70;62.80;94250.25;4992657;28;20258;-65
2023/01/21 07:48:13;;;;;;;7.47;5.30;;;;;;;5.74;62.25;94261.22;4990435;28;20194;-64
2023/01/21 07:50:38;;;;;;;6.67;5.20;;;;;;;5.75;62.40;94250.66;4990483;28;20276;-64
2023/01/21 07:53:04;;;;;;;6.20;5.00;;;;;;;5.68;62.64;94260.00;4993526;28;20238;-65
2023/01/21 07:55:30;;;;;;;5.67;5.07;;;;;;;5.80;62.54;94262.44;4993131;28;20313;-64
2023/01/21 07:57:56;;;;;;;7.27;5.03;;;;;;;5.73;62.65;94252.56;4990751;28;20239;-65
2023/01/21 08:00:22;;;;;;;5.47;4.33;;;;;;;5.89;62.35;94240.72;4990388;28;20199;-66
2023/01/21 08:02:55;;;;;;;5.33;3.93;;;;;;;5.93;62.29;94247.28;5004661;28;20215;-65
2023/01/21 08:05:24;;;;;;;4.10;3.70;;;;;;;6.09;61.92;94246.72;4988354;28;20302;-65
2023/01/21 08:07:50;;;;;;;5.83;4.80;;;;;;;6.14;61.85;94245.31;5002144;28;20227;-65
2023/01/21 08:10:17;;;;;;;9.13;7.10;;;;;;;6.26;61.18;94232.94;4990352;28;20286;-65
2023/01/21 08:12:42;;;;;;;7.03;6.17;;;;;;;6.40;61.05;94262.94;4994890;28;20227;-66
2023/01/21 08:15:09;;;;;;;7.90;6.17;;;;;;;6.52;61.04;94271.41;4990317;28;20200;-66
2023/01/21 08:17:38;;;;;;;5.70;5.10;;;;;;;6.63;60.27;94266.81;5023874;28;20187;-68
2023/01/21 08:20:05;;;;;;;6.63;5.93;;;;;;;6.83;60.04;94261.47;4985670;28;20321;-68
2023/01/21 08:22:31;;;;;;;6.20;5.60;;;;;;;6.84;59.82;94248.28;4990130;28;20266;-68
2023/01/21 08:24:56;;;;;;;6.53;5.83;;;;;;;6.99;59.32;94259.03;4989145;28;20286;-68
2023/01/21 08:27:21;;;;;;;8.43;6.53;;;;;;;7.10;59.13;94257.97;5004237;28;20285;-68
2023/01/21 08:29:47;;;;;;;7.53;5.50;;;;;;;7.14;59.10;94251.50;5025285;28;20282;-69
2023/01/21 08:32:13;;;;;;;6.73;6.03;;;;;;;7.01;59.46;94264.94;4987850;28;20231;-68
2023/01/21 08:34:38;;;;;;;8.10;5.33;;;;;;;6.99;59.30;94272.09;4994933;28;20227;-69
2023/01/21 08:37:04;;;;;;;5.90;4.93;;;;;;;7.04;59.27;94276.88;5021032;28;20313;-67
2023/01/21 08:39:29;;;;;;;6.33;5.50;;;;;;;7.09;58.96;94271.22;4988235;28;20242;-67
2023/01/21 08:41:54;;;;;;;7.13;5.10;;;;;;;7.17;58.98;94259.03;4989606;28;20207;-67
2023/01/21 08:44:20;;;;;;;5.30;4.70;;;;;;;7.20;58.67;94268.38;4988961;28;20219;-68
2023/01/21 08:46:45;;;;;;;8.53;5.30;;;;;;;7.17;58.63;94264.25;4989022;28;20235;-67
2023/01/21 08:49:11;;;;;;;6.30;4.60;;;;;;;7.16;59.02;94273.06;5003719;28;20235;-68
2023/01/21 08:51:36;;;;;;;4.87;3.93;;;;;;;7.16;59.17;94267.00;5003177;28;20226;-70
2023/01/21 08:54:03;;;;;;;4.77;4.10;;;;;;;7.25;59.19;94272.19;5022828;28;20274;-68
2023/01/21 08:56:28;;;;;;;3.10;2.80;;;;;;;7.43;58.04;94279.19;4983437;28;20233;-68
2023/01/21 08:58:56;;;;;;;2.63;2.37;;;;;;;7.12;58.27;94279.56;4987819;28;20314;-67
2023/01/21 09:01:23;;;;;;;3.33;2.30;;;;;;;7.41;57.77;94276.75;4980418;28;20227;-67
2023/01/21 09:03:52;;;;;;;3.63;2.37;;;;;;;7.60;57.67;94291.44;4969109;28;20294;-69
2023/01/21 09:06:18;;;;;;;2.73;2.47;;;;;;;7.76;56.84;94300.41;4968412;28;20213;-67
2023/01/21 09:08:43;;;;;;;3.40;2.10;;;;;;;7.61;57.31;94282.59;4985382;28;20203;-65
2023/01/21 09:11:08;;;;;;;2.47;2.27;;;;;;;7.89;56.60;94266.78;5001848;28;20220;-66
2023/01/21 09:13:37;;;;;;;2.37;1.93;;;;;;;8.02;55.74;94284.69;5001471;28;20224;-66
2023/01/21 09:16:11;;;;;;;2.23;2.00;;;;;;;8.07;55.73;94285.91;4969181;28;20228;-67
2023/01/21 09:18:37;;;;;;;2.97;2.20;;;;;;;8.12;55.47;94281.00;4974022;28;20235;-66
2023/01/21 09:21:04;;;;;;;1.80;1.70;;;;;;;8.20;55.40;94277.59;4987881;28;20196;-66
2023/01/21 09:23:33;;;;;;;3.53;2.60;;;;;;;7.96;56.28;94270.41;4984051;28;20230;-66
2023/01/21 09:26:11;;;;;;;3.70;2.17;;;;;;;7.91;56.31;94265.66;4960035;28;20580;-67
2023/01/21 09:28:39;;;;;;;4.27;2.67;;;;;;;7.87;56.64;94256.47;4964874;28;20225;-66
2023/01/21 09:31:07;;;;;;;2.83;2.50;;;;;;;7.88;56.49;94268.56;5001460;28;20311;-66
2023/01/21 09:33:34;;;;;;;2.93;2.73;;;;;;;8.02;56.29;94277.69;4972666;28;20219;-67
2023/01/21 09:36:02;;;;;;;2.60;2.40;;;;;;;7.99;56.48;94269.28;4979767;28;20255;-66
2023/01/21 09:38:28;;;;;;;2.90;2.33;;;;;;;8.18;55.42;94248.97;5020372;28;20247;-66
2023/01/21 09:40:55;;;;;;;3.70;2.40;;;;;;;8.27;55.25;94249.00;5019942;28;20262;-69
2023/01/21 09:43:41;;;;;;;4.37;2.07;;;;;;;8.31;55.16;94258.19;4980886;28;20235;-66
2023/01/21 09:46:16;;;;;;;3.60;2.20;;;;;;;8.28;55.02;94248.00;5012725;28;20234;-67
2023/01/21 09:48:46;;;;;;;2.57;2.37;;;;;;;8.28;54.87;94246.22;4979612;28;20243;-66
2023/01/21 09:51:44;;;;;;;4.13;2.07;;;;;;;8.33;54.92;94256.22;4983783;28;20262;-65
2023/01/21 09:54:25;;;;;;;3.33;2.33;;;;;;;8.07;55.60;94254.47;5018647;28;20195;-65
2023/01/21 09:57:08;;;;;;;3.73;2.70;;;;;;;8.10;55.66;94242.84;4988276;28;20241;-67
2023/01/21 09:59:43;;;;;;;2.43;2.23;;;;;;;8.08;55.99;94236.97;5022210;28;20315;-65
2023/01/21 10:02:23;;;;;;;2.17;1.80;;;;;;;8.09;55.44;94228.13;4992813;28;20245;-66
2023/01/21 10:05:15;;;;;;;3.07;2.80;;;;;;;8.12;55.90;94239.09;4987005;28;20249;-66
2023/01/21 10:08:22;;;;;;;4.77;2.13;;;;;;;8.21;55.71;94220.81;4987193;28;20234;-66
2023/01/21 10:10:48;;;;;;;2.20;1.97;;;;;;;8.28;55.57;94227.06;4948437;28;20293;-66
2023/01/21 10:13:35;;;;;;;4.03;2.67;;;;;;;8.50;54.87;94225.69;4937748;28;20312;-66
2023/01/21 10:16:35;;;;;;;2.30;1.90;;;;;;;8.60;54.67;94221.16;4952113;28;20232;-66
2023/01/21 10:19:03;;;;;;;2.93;2.23;;;;;;;8.71;55.25;94213.00;4897509;29;20340;-66
2023/01/21 10:21:49;;;;;;;3.10;2.10;;;;;;;8.66;55.13;94211.84;4903827;29;20230;-65
2023/01/21 10:24:20;;;;;;;2.87;1.80;;;;;;;8.74;54.49;94206.59;4917268;29;20332;-65
2023/01/21 10:26:48;;;;;;;2.97;1.90;;;;;;;8.89;54.32;94209.44;4900763;29;20194;-65
2023/01/21 10:29:18;;;;;;;2.17;1.93;;;;;;;8.82;54.65;94217.97;4916883;29;20227;-65
2023/01/21 10:31:53;;;;;;;1.90;1.80;;;;;;;8.99;54.60;94204.88;4893385;29;20249;-65
2023/01/21 10:34:18;;;;;;;2.20;1.83;;;;;;;9.04;54.54;94205.22;4897724;29;20225;-66
2023/01/21 10:37:19;;;;;;;2.33;2.13;;;;;;;9.21;53.74;94204.22;4912637;29;20237;-66
2023/01/21 10:40:41;;;;;;;3.00;1.90;;;;;;;9.27;53.66;94213.25;4915611;29;20306;-66
2023/01/21 10:43:28;;;;;;;3.23;1.97;;;;;;;9.57;53.36;94203.91;4916284;29;20229;-67
2023/01/21 10:46:11;;;;;;;3.13;2.00;;;;;;;9.62;52.85;94190.28;4892770;29;20345;-66
2023/01/21 10:48:51;;;;;;;3.13;2.20;;;;;;;9.84;52.98;94189.59;4927017;28;20240;-66
2023/01/21 10:51:41;;;;;;;2.03;1.80;;;;;;;10.02;52.26;94181.47;4919523;29;20209;-66
2023/01/21 10:54:25;;;;;;;2.40;2.10;;;;;;;10.36;51.53;94183.03;4924075;29;20204;-66
2023/01/21 10:56:55;;;;;;;2.33;1.90;;;;;;;10.25;51.36;94191.28;4951508;28;20323;-67
2023/01/21 10:59:25;;;;;;;2.37;1.70;;;;;;;10.23;51.12;94185.38;4960946;28;20239;-67
2023/01/21 11:02:02;;;;;;;1.73;1.60;;;;;;;10.34;50.85;94177.97;4968412;28;20231;-66
2023/01/21 11:04:28;;;;;;;2.40;1.77;;;;;;;10.52;50.26;94169.81;4949294;28;20239;-66
2023/01/21 11:07:02;;;;;;;5.33;1.80;;;;;;;10.56;50.37;94158.00;4954911;28;20235;-65
2023/01/21 11:09:33;;;;;;;3.20;2.37;;;;;;;10.60;50.03;94147.94;4952547;28;20231;-66
2023/01/21 11:11:59;;;;;;;2.50;1.70;;;;;;;10.70;49.41;94163.50;4988734;28;20196;-66
2023/01/21 11:14:25;;;;;;;2.60;1.63;;;;;;;10.88;49.18;94150.06;4984538;28;20227;-66
2023/01/21 11:16:52;;;;;;;2.83;1.50;;;;;;;10.99;48.68;94147.88;4953897;28;20235;-65
2023/01/21 11:19:22;;;;;;;1.50;1.30;;;;;;;11.03;48.55;94157.03;4976095;28;20335;-65
2023/01/21 11:22:16;;;;;;;2.83;1.80;;;;;;;11.40;47.81;94165.16;4987901;28;20227;-66
2023/01/21 11:24:45;;;;;;;1.77;1.60;;;;;;;11.22;48.33;94168.88;5022560;28;20227;-66
2023/01/21 11:27:38;;;;;;;4.80;1.70;;;;;;;11.45;47.77;94168.88;4989619;28;20202;-67
2023/01/21 11:30:06;;;;;;;3.57;2.33;;;;;;;11.70;47.13;94179.19;4988615;28;20195;-66
2023/01/21 11:32:32;;;;;;;2.17;2.00;;;;;;;11.89;46.33;94172.59;4990865;28;20219;-66
2023/01/21 11:35:07;;;;;;;2.73;1.73;;;;;;;11.88;46.50;94173.63;4991494;28;20227;-66
2023/01/21 11:37:33;;;;;;;3.90;1.77;;;;;;;11.81;46.60;94176.09;5012637;28;20211;-66
2023/01/21 11:40:22;;;;;;;4.37;1.73;;;;;;;11.59;47.11;94159.38;4990281;28;20254;-66
2023/01/21 11:42:53;;;;;;;1.87;1.73;;;;;;;11.81;46.66;94154.22;4983592;28;20220;-67
2023/01/21 11:45:28;;;;;;;4.17;1.77;;;;;;;12.08;46.57;94155.44;4986661;28;20188;-66
2023/01/21 11:47:54;;;;;;;2.17;1.73;;;;;;;12.21;45.69;94144.25;4970869;28;20207;-67
2023/01/21 11:50:38;;;;;;;2.07;1.70;;;;;;;12.50;45.23;94154.78;5003933;28;20220;-66
2023/01/21 11:53:10;;;;;;;2.67;1.57;;;;;;;12.70;44.49;94149.75;4985144;28;20234;-67